sensor_id;sensor_type;location;lat;lon;timestamp;temperature;humidity
24408;DHT22;12542;50.924;4.516;2022-08-21T00:02:22;17.50;99.90
24408;DHT22;12542;50.924;4.516;2022-08-21T00:04:49;17.50;99.90
24408;DHT22;12542;50.924;4.516;2022-08-21T00:07:17;17.40;99.90
24408;DHT22;12542;50.924;4.516;2022-08-21T00:09:44;17.40;99.90
24408;DHT22;12542;50.924;4.516;2022-08-21T00:12:10;17.40;99.90
24408;DHT22;12542;50.924;4.516;2022-08-21T00:14:39;17.40;99.90
24408;DHT22;12542;50.924;4.516;2022-08-21T00:17:05;17.40;99.90
24408;DHT22;12542;50.924;4.516;2022-08-21T00:19:32;17.40;99.90
24408;DHT22;12542;50.924;4.516;2022-08-21T00:21:58;17.40;99.90
24408;DHT22;12542;50.924;4.516;2022-08-21T00:24:24;17.40;99.90
24408;DHT22;12542;50.924;4.516;2022-08-21T00:26:51;17.40;99.90
24408;DHT22;12542;50.924;4.516;2022-08-21T00:29:19;17.40;99.90
24408;DHT22;12542;50.924;4.516;2022-08-21T00:31:45;17.40;99.90
24408;DHT22;12542;50.924;4.516;2022-08-21T00:34:13;17.40;99.90
24408;DHT22;12542;50.924;4.516;2022-08-21T00:36:39;17.40;99.90
24408;DHT22;12542;50.924;4.516;2022-08-21T00:39:06;17.30;99.90
24408;DHT22;12542;50.924;4.516;2022-08-21T00:41:33;17.30;99.90
24408;DHT22;12542;50.924;4.516;2022-08-21T00:44:00;17.30;99.90
24408;DHT22;12542;50.924;4.516;2022-08-21T00:46:25;17.20;99.90
24408;DHT22;12542;50.924;4.516;2022-08-21T00:48:53;17.20;99.90
24408;DHT22;12542;50.924;4.516;2022-08-21T00:51:23;17.20;99.90
24408;DHT22;12542;50.924;4.516;2022-08-21T00:53:57;17.20;99.90
24408;DHT22;12542;50.924;4.516;2022-08-21T00:56:25;17.20;99.90
24408;DHT22;12542;50.924;4.516;2022-08-21T00:58:54;17.20;99.90
24408;DHT22;12542;50.924;4.516;2022-08-21T01:01:21;17.10;99.90
24408;DHT22;12542;50.924;4.516;2022-08-21T01:03:47;17.00;99.90
24408;DHT22;12542;50.924;4.516;2022-08-21T01:06:15;17.00;99.90
24408;DHT22;12542;50.924;4.516;2022-08-21T01:08:42;17.00;99.90
24408;DHT22;12542;50.924;4.516;2022-08-21T01:11:10;17.00;99.90
24408;DHT22;12542;50.924;4.516;2022-08-21T01:13:41;17.00;99.90
24408;DHT22;12542;50.924;4.516;2022-08-21T01:16:14;16.90;99.90
24408;DHT22;12542;50.924;4.516;2022-08-21T01:18:40;16.90;99.90
24408;DHT22;12542;50.924;4.516;2022-08-21T01:21:17;16.80;99.90
24408;DHT22;12542;50.924;4.516;2022-08-21T01:23:45;16.80;99.90
24408;DHT22;12542;50.924;4.516;2022-08-21T01:26:13;16.70;99.90
24408;DHT22;12542;50.924;4.516;2022-08-21T01:28:45;16.70;99.90
24408;DHT22;12542;50.924;4.516;2022-08-21T01:31:14;16.70;99.90
24408;DHT22;12542;50.924;4.516;2022-08-21T01:33:40;16.60;99.90
24408;DHT22;12542;50.924;4.516;2022-08-21T01:36:07;16.60;99.90
24408;DHT22;12542;50.924;4.516;2022-08-21T01:38:35;16.60;99.90
24408;DHT22;12542;50.924;4.516;2022-08-21T01:41:01;16.60;99.90
24408;DHT22;12542;50.924;4.516;2022-08-21T01:43:32;16.60;99.90
24408;DHT22;12542;50.924;4.516;2022-08-21T01:46:00;16.50;99.90
24408;DHT22;12542;50.924;4.516;2022-08-21T01:48:27;16.50;99.90
24408;DHT22;12542;50.924;4.516;2022-08-21T01:50:54;16.50;99.90
24408;DHT22;12542;50.924;4.516;2022-08-21T01:53:19;16.40;99.90
24408;DHT22;12542;50.924;4.516;2022-08-21T01:55:45;16.40;99.90
24408;DHT22;12542;50.924;4.516;2022-08-21T01:58:10;16.30;99.90
24408;DHT22;12542;50.924;4.516;2022-08-21T02:00:36;16.40;99.90
24408;DHT22;12542;50.924;4.516;2022-08-21T02:03:02;16.30;99.90
24408;DHT22;12542;50.924;4.516;2022-08-21T02:05:28;16.30;99.90
24408;DHT22;12542;50.924;4.516;2022-08-21T02:07:54;16.20;99.90
24408;DHT22;12542;50.924;4.516;2022-08-21T02:10:27;16.30;99.90
24408;DHT22;12542;50.924;4.516;2022-08-21T02:12:56;16.20;99.90
24408;DHT22;12542;50.924;4.516;2022-08-21T02:15:22;16.20;99.90
24408;DHT22;12542;50.924;4.516;2022-08-21T02:17:51;16.10;99.90
24408;DHT22;12542;50.924;4.516;2022-08-21T02:20:22;16.10;99.90
24408;DHT22;12542;50.924;4.516;2022-08-21T02:22:48;16.00;99.90
24408;DHT22;12542;50.924;4.516;2022-08-21T02:25:15;15.90;99.90
24408;DHT22;12542;50.924;4.516;2022-08-21T02:27:43;15.80;99.90
24408;DHT22;12542;50.924;4.516;2022-08-21T02:30:13;15.80;99.90
24408;DHT22;12542;50.924;4.516;2022-08-21T02:32:39;15.80;99.90
24408;DHT22;12542;50.924;4.516;2022-08-21T02:35:06;15.80;99.90
24408;DHT22;12542;50.924;4.516;2022-08-21T02:37:32;15.80;99.90
24408;DHT22;12542;50.924;4.516;2022-08-21T02:40:00;15.60;99.90
24408;DHT22;12542;50.924;4.516;2022-08-21T02:42:28;15.50;99.90
24408;DHT22;12542;50.924;4.516;2022-08-21T02:44:54;15.30;99.90
24408;DHT22;12542;50.924;4.516;2022-08-21T02:47:22;15.40;99.90
24408;DHT22;12542;50.924;4.516;2022-08-21T02:49:47;15.30;99.90
24408;DHT22;12542;50.924;4.516;2022-08-21T02:52:15;15.40;99.90
24408;DHT22;12542;50.924;4.516;2022-08-21T02:54:41;15.40;99.90
24408;DHT22;12542;50.924;4.516;2022-08-21T02:57:07;15.30;99.90
24408;DHT22;12542;50.924;4.516;2022-08-21T02:59:33;15.30;99.90
24408;DHT22;12542;50.924;4.516;2022-08-21T03:01:59;15.20;99.90
24408;DHT22;12542;50.924;4.516;2022-08-21T03:04:24;15.10;99.90
24408;DHT22;12542;50.924;4.516;2022-08-21T03:06:50;15.00;99.90
24408;DHT22;12542;50.924;4.516;2022-08-21T03:09:15;15.00;99.90
24408;DHT22;12542;50.924;4.516;2022-08-21T03:11:41;15.20;99.90
24408;DHT22;12542;50.924;4.516;2022-08-21T03:14:07;15.30;99.90
24408;DHT22;12542;50.924;4.516;2022-08-21T03:16:34;15.40;99.90
24408;DHT22;12542;50.924;4.516;2022-08-21T03:19:03;15.40;99.90
24408;DHT22;12542;50.924;4.516;2022-08-21T03:21:29;15.40;99.90
24408;DHT22;12542;50.924;4.516;2022-08-21T03:23:57;15.30;99.90
24408;DHT22;12542;50.924;4.516;2022-08-21T03:26:22;15.30;99.90
24408;DHT22;12542;50.924;4.516;2022-08-21T03:28:49;15.30;99.90
24408;DHT22;12542;50.924;4.516;2022-08-21T03:31:16;15.20;99.90
24408;DHT22;12542;50.924;4.516;2022-08-21T03:33:43;15.30;99.90
24408;DHT22;12542;50.924;4.516;2022-08-21T03:36:09;15.30;99.90
24408;DHT22;12542;50.924;4.516;2022-08-21T03:38:38;15.30;99.90
24408;DHT22;12542;50.924;4.516;2022-08-21T03:41:04;15.30;99.90
24408;DHT22;12542;50.924;4.516;2022-08-21T03:43:33;15.30;99.90
24408;DHT22;12542;50.924;4.516;2022-08-21T03:46:03;15.40;99.90
24408;DHT22;12542;50.924;4.516;2022-08-21T03:48:29;15.30;99.90
24408;DHT22;12542;50.924;4.516;2022-08-21T03:50:54;15.40;99.90
24408;DHT22;12542;50.924;4.516;2022-08-21T03:53:21;15.40;99.90
24408;DHT22;12542;50.924;4.516;2022-08-21T03:55:49;15.30;99.90
24408;DHT22;12542;50.924;4.516;2022-08-21T03:58:17;15.30;99.90
24408;DHT22;12542;50.924;4.516;2022-08-21T04:00:49;15.30;99.90
24408;DHT22;12542;50.924;4.516;2022-08-21T04:03:16;15.30;99.90
24408;DHT22;12542;50.924;4.516;2022-08-21T04:05:42;15.30;99.90
24408;DHT22;12542;50.924;4.516;2022-08-21T04:08:11;15.30;99.90
24408;DHT22;12542;50.924;4.516;2022-08-21T04:10:40;15.30;99.90
24408;DHT22;12542;50.924;4.516;2022-08-21T04:13:08;15.20;99.90
24408;DHT22;12542;50.924;4.516;2022-08-21T04:15:36;15.20;99.90
24408;DHT22;12542;50.924;4.516;2022-08-21T04:18:03;15.20;99.90
24408;DHT22;12542;50.924;4.516;2022-08-21T04:20:31;15.20;99.90
24408;DHT22;12542;50.924;4.516;2022-08-21T04:22:56;15.30;99.90
24408;DHT22;12542;50.924;4.516;2022-08-21T04:25:23;15.30;99.90
24408;DHT22;12542;50.924;4.516;2022-08-21T04:27:51;15.30;99.90
24408;DHT22;12542;50.924;4.516;2022-08-21T04:30:17;15.30;99.90
24408;DHT22;12542;50.924;4.516;2022-08-21T04:32:48;15.30;99.90
24408;DHT22;12542;50.924;4.516;2022-08-21T04:35:15;15.30;99.90
24408;DHT22;12542;50.924;4.516;2022-08-21T04:37:42;15.30;99.90
24408;DHT22;12542;50.924;4.516;2022-08-21T04:40:09;15.30;99.90
24408;DHT22;12542;50.924;4.516;2022-08-21T04:43:02;15.30;99.90
24408;DHT22;12542;50.924;4.516;2022-08-21T04:45:32;15.40;99.90
24408;DHT22;12542;50.924;4.516;2022-08-21T04:48:01;15.40;99.90
24408;DHT22;12542;50.924;4.516;2022-08-21T04:50:30;15.50;99.90
24408;DHT22;12542;50.924;4.516;2022-08-21T04:52:57;15.50;99.90
24408;DHT22;12542;50.924;4.516;2022-08-21T04:55:24;15.60;99.90
24408;DHT22;12542;50.924;4.516;2022-08-21T04:57:54;15.60;99.90
24408;DHT22;12542;50.924;4.516;2022-08-21T05:00:22;15.70;99.90
24408;DHT22;12542;50.924;4.516;2022-08-21T05:02:53;15.80;99.90
24408;DHT22;12542;50.924;4.516;2022-08-21T05:05:24;15.80;99.90
24408;DHT22;12542;50.924;4.516;2022-08-21T05:07:49;15.90;99.90
24408;DHT22;12542;50.924;4.516;2022-08-21T05:10:15;16.00;99.90
24408;DHT22;12542;50.924;4.516;2022-08-21T05:12:42;16.10;99.90
24408;DHT22;12542;50.924;4.516;2022-08-21T05:15:10;16.20;99.90
24408;DHT22;12542;50.924;4.516;2022-08-21T05:17:37;16.30;99.90
24408;DHT22;12542;50.924;4.516;2022-08-21T05:20:03;16.50;99.90
24408;DHT22;12542;50.924;4.516;2022-08-21T05:22:29;17.30;99.90
24408;DHT22;12542;50.924;4.516;2022-08-21T05:24:56;19.20;99.90
24408;DHT22;12542;50.924;4.516;2022-08-21T05:27:24;21.50;99.90
24408;DHT22;12542;50.924;4.516;2022-08-21T05:29:52;23.50;99.90
24408;DHT22;12542;50.924;4.516;2022-08-21T05:32:18;25.00;99.60
24408;DHT22;12542;50.924;4.516;2022-08-21T05:34:43;26.40;97.10
24408;DHT22;12542;50.924;4.516;2022-08-21T05:37:13;27.70;94.60
24408;DHT22;12542;50.924;4.516;2022-08-21T05:39:39;28.90;92.00
24408;DHT22;12542;50.924;4.516;2022-08-21T05:42:05;28.80;89.70
24408;DHT22;12542;50.924;4.516;2022-08-21T05:44:31;28.40;88.30
24408;DHT22;12542;50.924;4.516;2022-08-21T05:47:03;28.30;88.80
24408;DHT22;12542;50.924;4.516;2022-08-21T05:49:29;28.90;87.10
24408;DHT22;12542;50.924;4.516;2022-08-21T05:51:55;30.00;84.60
24408;DHT22;12542;50.924;4.516;2022-08-21T05:54:21;30.30;82.90
24408;DHT22;12542;50.924;4.516;2022-08-21T05:56:47;30.90;81.10
24408;DHT22;12542;50.924;4.516;2022-08-21T05:59:12;30.40;78.70
24408;DHT22;12542;50.924;4.516;2022-08-21T06:01:39;28.90;81.80
24408;DHT22;12542;50.924;4.516;2022-08-21T06:04:05;28.90;83.30
24408;DHT22;12542;50.924;4.516;2022-08-21T06:06:31;29.10;82.10
24408;DHT22;12542;50.924;4.516;2022-08-21T06:08:56;28.90;81.20
24408;DHT22;12542;50.924;4.516;2022-08-21T06:11:22;28.60;82.90
24408;DHT22;12542;50.924;4.516;2022-08-21T06:13:48;29.00;82.90
24408;DHT22;12542;50.924;4.516;2022-08-21T06:16:15;30.00;80.70
24408;DHT22;12542;50.924;4.516;2022-08-21T06:18:43;31.40;78.70
24408;DHT22;12542;50.924;4.516;2022-08-21T06:21:09;31.50;74.90
24408;DHT22;12542;50.924;4.516;2022-08-21T06:23:39;31.90;74.80
24408;DHT22;12542;50.924;4.516;2022-08-21T06:26:08;33.40;73.30
24408;DHT22;12542;50.924;4.516;2022-08-21T06:28:35;34.70;69.60
24408;DHT22;12542;50.924;4.516;2022-08-21T06:31:01;35.70;64.30
24408;DHT22;12542;50.924;4.516;2022-08-21T06:33:27;35.80;64.80
24408;DHT22;12542;50.924;4.516;2022-08-21T06:35:56;35.90;60.60
24408;DHT22;12542;50.924;4.516;2022-08-21T06:38:21;35.50;62.00
24408;DHT22;12542;50.924;4.516;2022-08-21T06:40:47;35.40;62.50
24408;DHT22;12542;50.924;4.516;2022-08-21T06:43:16;35.20;62.40
24408;DHT22;12542;50.924;4.516;2022-08-21T06:45:42;35.10;63.10
24408;DHT22;12542;50.924;4.516;2022-08-21T06:48:10;35.30;64.20
24408;DHT22;12542;50.924;4.516;2022-08-21T06:50:39;35.30;63.00
24408;DHT22;12542;50.924;4.516;2022-08-21T06:53:08;35.50;62.30
24408;DHT22;12542;50.924;4.516;2022-08-21T06:55:35;35.80;61.30
24408;DHT22;12542;50.924;4.516;2022-08-21T06:58:02;35.20;62.40
24408;DHT22;12542;50.924;4.516;2022-08-21T07:00:29;34.60;63.30
24408;DHT22;12542;50.924;4.516;2022-08-21T07:02:55;33.90;65.20
24408;DHT22;12542;50.924;4.516;2022-08-21T07:05:28;33.70;66.20
24408;DHT22;12542;50.924;4.516;2022-08-21T07:07:55;34.20;65.20
24408;DHT22;12542;50.924;4.516;2022-08-21T07:10:21;34.60;63.70
24408;DHT22;12542;50.924;4.516;2022-08-21T07:12:46;34.60;63.30
24408;DHT22;12542;50.924;4.516;2022-08-21T07:15:14;34.10;65.70
24408;DHT22;12542;50.924;4.516;2022-08-21T07:17:40;33.90;64.50
24408;DHT22;12542;50.924;4.516;2022-08-21T07:20:07;33.80;65.10
24408;DHT22;12542;50.924;4.516;2022-08-21T07:22:33;33.70;66.70
24408;DHT22;12542;50.924;4.516;2022-08-21T07:25:00;33.70;66.00
24408;DHT22;12542;50.924;4.516;2022-08-21T07:27:28;33.70;67.00
24408;DHT22;12542;50.924;4.516;2022-08-21T07:29:54;33.10;66.90
24408;DHT22;12542;50.924;4.516;2022-08-21T07:32:20;32.90;68.50
24408;DHT22;12542;50.924;4.516;2022-08-21T07:34:46;32.40;67.50
24408;DHT22;12542;50.924;4.516;2022-08-21T07:37:12;32.00;70.10
24408;DHT22;12542;50.924;4.516;2022-08-21T07:39:37;31.60;71.60
24408;DHT22;12542;50.924;4.516;2022-08-21T07:42:03;31.50;72.00
24408;DHT22;12542;50.924;4.516;2022-08-21T07:44:29;31.10;72.90
24408;DHT22;12542;50.924;4.516;2022-08-21T07:46:55;30.90;73.50
24408;DHT22;12542;50.924;4.516;2022-08-21T07:49:21;30.60;75.20
24408;DHT22;12542;50.924;4.516;2022-08-21T07:51:47;30.50;75.00
24408;DHT22;12542;50.924;4.516;2022-08-21T07:54:13;30.50;75.70
24408;DHT22;12542;50.924;4.516;2022-08-21T07:56:39;30.90;75.60
24408;DHT22;12542;50.924;4.516;2022-08-21T07:59:05;31.00;74.20
24408;DHT22;12542;50.924;4.516;2022-08-21T08:01:31;31.10;74.00
24408;DHT22;12542;50.924;4.516;2022-08-21T08:03:57;31.20;74.00
24408;DHT22;12542;50.924;4.516;2022-08-21T08:06:23;31.30;72.70
24408;DHT22;12542;50.924;4.516;2022-08-21T08:08:51;31.30;74.70
24408;DHT22;12542;50.924;4.516;2022-08-21T08:11:19;30.90;74.90
24408;DHT22;12542;50.924;4.516;2022-08-21T08:13:46;31.10;74.20
24408;DHT22;12542;50.924;4.516;2022-08-21T08:16:13;30.30;75.40
24408;DHT22;12542;50.924;4.516;2022-08-21T08:18:39;30.00;76.90
24408;DHT22;12542;50.924;4.516;2022-08-21T08:21:08;29.60;77.80
24408;DHT22;12542;50.924;4.516;2022-08-21T08:23:35;29.10;79.20
24408;DHT22;12542;50.924;4.516;2022-08-21T08:26:01;28.60;78.90
24408;DHT22;12542;50.924;4.516;2022-08-21T08:28:28;28.30;82.00
24408;DHT22;12542;50.924;4.516;2022-08-21T08:30:55;28.30;82.40
24408;DHT22;12542;50.924;4.516;2022-08-21T08:33:23;28.10;81.60
24408;DHT22;12542;50.924;4.516;2022-08-21T08:35:50;28.20;82.60
24408;DHT22;12542;50.924;4.516;2022-08-21T08:38:21;28.40;82.00
24408;DHT22;12542;50.924;4.516;2022-08-21T08:43:21;28.10;84.30
24408;DHT22;12542;50.924;4.516;2022-08-21T08:45:50;28.00;83.70
24408;DHT22;12542;50.924;4.516;2022-08-21T08:51:00;28.40;82.70
24408;DHT22;12542;50.924;4.516;2022-08-21T08:53:34;28.60;83.00
24408;DHT22;12542;50.924;4.516;2022-08-21T08:56:04;29.00;82.50
24408;DHT22;12542;50.924;4.516;2022-08-21T08:58:39;29.30;80.60
24408;DHT22;12542;50.924;4.516;2022-08-21T09:01:16;29.30;81.80
24408;DHT22;12542;50.924;4.516;2022-08-21T09:03:43;29.80;79.70
24408;DHT22;12542;50.924;4.516;2022-08-21T09:11:26;30.00;77.90
24408;DHT22;12542;50.924;4.516;2022-08-21T09:17:31;29.70;78.90
24408;DHT22;12542;50.924;4.516;2022-08-21T09:25:42;29.70;78.20
24408;DHT22;12542;50.924;4.516;2022-08-21T09:28:11;29.60;78.30
24408;DHT22;12542;50.924;4.516;2022-08-21T09:30:40;29.20;80.10
24408;DHT22;12542;50.924;4.516;2022-08-21T09:33:12;29.10;78.70
24408;DHT22;12542;50.924;4.516;2022-08-21T09:35:50;28.90;80.40
24408;DHT22;12542;50.924;4.516;2022-08-21T09:38:26;29.10;81.10
24408;DHT22;12542;50.924;4.516;2022-08-21T09:41:08;29.70;78.10
24408;DHT22;12542;50.924;4.516;2022-08-21T09:43:35;30.30;79.30
24408;DHT22;12542;50.924;4.516;2022-08-21T09:48:41;30.80;75.00
24408;DHT22;12542;50.924;4.516;2022-08-21T09:51:11;31.10;74.50
24408;DHT22;12542;50.924;4.516;2022-08-21T09:53:42;30.40;74.00
24408;DHT22;12542;50.924;4.516;2022-08-21T09:56:24;29.80;77.40
24408;DHT22;12542;50.924;4.516;2022-08-21T09:59:15;29.30;77.50
24408;DHT22;12542;50.924;4.516;2022-08-21T10:01:47;28.80;77.80
24408;DHT22;12542;50.924;4.516;2022-08-21T10:04:14;28.60;79.50
24408;DHT22;12542;50.924;4.516;2022-08-21T10:06:40;28.40;80.60
24408;DHT22;12542;50.924;4.516;2022-08-21T10:09:12;27.80;80.50
24408;DHT22;12542;50.924;4.516;2022-08-21T10:11:40;27.90;82.00
24408;DHT22;12542;50.924;4.516;2022-08-21T10:14:22;27.90;81.30
24408;DHT22;12542;50.924;4.516;2022-08-21T10:17:11;27.90;81.80
24408;DHT22;12542;50.924;4.516;2022-08-21T10:24:58;28.40;80.70
24408;DHT22;12542;50.924;4.516;2022-08-21T10:35:41;28.70;80.80
24408;DHT22;12542;50.924;4.516;2022-08-21T10:38:59;29.00;79.50
24408;DHT22;12542;50.924;4.516;2022-08-21T10:46:46;29.50;77.30
24408;DHT22;12542;50.924;4.516;2022-08-21T10:49:25;29.60;76.90
24408;DHT22;12542;50.924;4.516;2022-08-21T10:52:09;29.30;78.20
24408;DHT22;12542;50.924;4.516;2022-08-21T10:57:54;29.40;79.10
24408;DHT22;12542;50.924;4.516;2022-08-21T11:00:24;29.30;78.80
24408;DHT22;12542;50.924;4.516;2022-08-21T11:03:07;29.50;78.80
24408;DHT22;12542;50.924;4.516;2022-08-21T11:08:10;29.30;79.80
24408;DHT22;12542;50.924;4.516;2022-08-21T11:10:48;29.30;78.40
24408;DHT22;12542;50.924;4.516;2022-08-21T11:16:16;29.70;78.50
24408;DHT22;12542;50.924;4.516;2022-08-21T11:18:49;30.10;77.70
24408;DHT22;12542;50.924;4.516;2022-08-21T11:24:19;30.00;75.10
24408;DHT22;12542;50.924;4.516;2022-08-21T11:29:33;30.90;74.70
24408;DHT22;12542;50.924;4.516;2022-08-21T11:32:35;30.70;75.60
24408;DHT22;12542;50.924;4.516;2022-08-21T11:38:16;29.60;77.40
24408;DHT22;12542;50.924;4.516;2022-08-21T11:43:41;28.70;78.20
24408;DHT22;12542;50.924;4.516;2022-08-21T11:49:16;29.00;79.70
24408;DHT22;12542;50.924;4.516;2022-08-21T11:56:46;30.20;76.90
24408;DHT22;12542;50.924;4.516;2022-08-21T11:59:34;30.40;74.70
24408;DHT22;12542;50.924;4.516;2022-08-21T12:02:02;30.20;73.70
24408;DHT22;12542;50.924;4.516;2022-08-21T12:04:35;29.60;75.10
24408;DHT22;12542;50.924;4.516;2022-08-21T12:07:13;29.10;77.10
24408;DHT22;12542;50.924;4.516;2022-08-21T12:09:39;29.00;75.90
24408;DHT22;12542;50.924;4.516;2022-08-21T12:12:09;28.50;78.30
24408;DHT22;12542;50.924;4.516;2022-08-21T12:14:48;28.50;79.40
24408;DHT22;12542;50.924;4.516;2022-08-21T12:17:19;28.80;76.90
24408;DHT22;12542;50.924;4.516;2022-08-21T12:19:57;29.20;77.30
24408;DHT22;12542;50.924;4.516;2022-08-21T12:22:38;29.50;78.90
24408;DHT22;12542;50.924;4.516;2022-08-21T12:25:10;29.50;75.20
24408;DHT22;12542;50.924;4.516;2022-08-21T12:27:47;29.50;75.90
24408;DHT22;12542;50.924;4.516;2022-08-21T12:30:36;29.50;74.40
24408;DHT22;12542;50.924;4.516;2022-08-21T12:36:28;29.00;76.80
24408;DHT22;12542;50.924;4.516;2022-08-21T12:39:04;29.00;75.90
24408;DHT22;12542;50.924;4.516;2022-08-21T12:44:31;28.70;74.70
24408;DHT22;12542;50.924;4.516;2022-08-21T12:47:05;28.70;73.80
24408;DHT22;12542;50.924;4.516;2022-08-21T12:49:43;28.40;76.70
24408;DHT22;12542;50.924;4.516;2022-08-21T12:52:19;28.20;77.70
24408;DHT22;12542;50.924;4.516;2022-08-21T12:54:45;28.00;78.60
24408;DHT22;12542;50.924;4.516;2022-08-21T12:57:23;27.90;78.60
24408;DHT22;12542;50.924;4.516;2022-08-21T13:00:01;27.70;78.00
24408;DHT22;12542;50.924;4.516;2022-08-21T13:02:43;27.80;78.90
24408;DHT22;12542;50.924;4.516;2022-08-21T13:05:15;28.00;78.10
24408;DHT22;12542;50.924;4.516;2022-08-21T13:07:48;28.20;77.60
24408;DHT22;12542;50.924;4.516;2022-08-21T13:10:36;28.10;76.20
24408;DHT22;12542;50.924;4.516;2022-08-21T13:13:05;27.90;75.80
24408;DHT22;12542;50.924;4.516;2022-08-21T13:15:34;27.80;76.80
24408;DHT22;12542;50.924;4.516;2022-08-21T13:18:04;27.90;76.40
24408;DHT22;12542;50.924;4.516;2022-08-21T13:20:37;27.90;77.60
24408;DHT22;12542;50.924;4.516;2022-08-21T13:23:23;27.90;75.10
24408;DHT22;12542;50.924;4.516;2022-08-21T13:25:48;27.80;77.20
24408;DHT22;12542;50.924;4.516;2022-08-21T13:28:15;27.80;77.50
24408;DHT22;12542;50.924;4.516;2022-08-21T13:30:48;27.50;79.10
24408;DHT22;12542;50.924;4.516;2022-08-21T13:33:17;27.60;80.70
24408;DHT22;12542;50.924;4.516;2022-08-21T13:38:28;28.00;78.80
24408;DHT22;12542;50.924;4.516;2022-08-21T13:40:57;27.70;79.00
24408;DHT22;12542;50.924;4.516;2022-08-21T13:43:27;27.70;78.70
24408;DHT22;12542;50.924;4.516;2022-08-21T13:45:57;27.80;78.10
24408;DHT22;12542;50.924;4.516;2022-08-21T13:48:28;27.70;81.00
24408;DHT22;12542;50.924;4.516;2022-08-21T13:50:56;27.80;78.00
24408;DHT22;12542;50.924;4.516;2022-08-21T13:56:00;27.90;78.40
24408;DHT22;12542;50.924;4.516;2022-08-21T13:58:31;28.00;76.70
24408;DHT22;12542;50.924;4.516;2022-08-21T14:01:01;28.00;75.80
24408;DHT22;12542;50.924;4.516;2022-08-21T14:03:34;28.20;77.40
24408;DHT22;12542;50.924;4.516;2022-08-21T14:06:00;27.90;79.00
24408;DHT22;12542;50.924;4.516;2022-08-21T14:08:35;28.00;74.60
24408;DHT22;12542;50.924;4.516;2022-08-21T14:11:04;27.70;76.10
24408;DHT22;12542;50.924;4.516;2022-08-21T14:16:08;28.00;76.30
24408;DHT22;12542;50.924;4.516;2022-08-21T14:18:44;28.10;77.60
24408;DHT22;12542;50.924;4.516;2022-08-21T14:21:09;28.00;77.90
24408;DHT22;12542;50.924;4.516;2022-08-21T14:23:35;28.00;74.90
24408;DHT22;12542;50.924;4.516;2022-08-21T14:26:03;27.90;74.80
24408;DHT22;12542;50.924;4.516;2022-08-21T14:28:38;27.80;75.30
24408;DHT22;12542;50.924;4.516;2022-08-21T14:31:17;28.20;76.90
24408;DHT22;12542;50.924;4.516;2022-08-21T14:33:46;28.30;72.70
24408;DHT22;12542;50.924;4.516;2022-08-21T14:36:12;28.40;72.30
24408;DHT22;12542;50.924;4.516;2022-08-21T14:38:39;28.50;73.80
24408;DHT22;12542;50.924;4.516;2022-08-21T14:41:16;28.30;75.30
24408;DHT22;12542;50.924;4.516;2022-08-21T14:43:48;28.20;72.00
24408;DHT22;12542;50.924;4.516;2022-08-21T14:46:23;28.00;74.80
24408;DHT22;12542;50.924;4.516;2022-08-21T14:48:49;27.70;76.60
24408;DHT22;12542;50.924;4.516;2022-08-21T14:51:15;27.40;77.10
24408;DHT22;12542;50.924;4.516;2022-08-21T14:53:41;27.40;77.10
24408;DHT22;12542;50.924;4.516;2022-08-21T14:56:07;27.30;75.90
24408;DHT22;12542;50.924;4.516;2022-08-21T14:58:42;27.20;78.90
24408;DHT22;12542;50.924;4.516;2022-08-21T15:01:13;27.20;78.50
24408;DHT22;12542;50.924;4.516;2022-08-21T15:03:39;27.10;78.90
24408;DHT22;12542;50.924;4.516;2022-08-21T15:06:06;27.20;78.20
24408;DHT22;12542;50.924;4.516;2022-08-21T15:08:33;27.20;78.50
24408;DHT22;12542;50.924;4.516;2022-08-21T15:11:00;27.20;79.80
24408;DHT22;12542;50.924;4.516;2022-08-21T15:13:27;27.30;79.30
24408;DHT22;12542;50.924;4.516;2022-08-21T15:15:53;27.20;79.40
24408;DHT22;12542;50.924;4.516;2022-08-21T15:18:27;27.10;79.80
24408;DHT22;12542;50.924;4.516;2022-08-21T15:20:53;27.20;79.60
24408;DHT22;12542;50.924;4.516;2022-08-21T15:23:22;27.00;80.00
24408;DHT22;12542;50.924;4.516;2022-08-21T15:25:49;27.10;80.10
24408;DHT22;12542;50.924;4.516;2022-08-21T15:28:17;27.00;79.60
24408;DHT22;12542;50.924;4.516;2022-08-21T15:30:44;27.20;79.40
24408;DHT22;12542;50.924;4.516;2022-08-21T15:33:12;27.20;79.60
24408;DHT22;12542;50.924;4.516;2022-08-21T15:35:43;27.30;78.30
24408;DHT22;12542;50.924;4.516;2022-08-21T15:38:10;27.30;78.50
24408;DHT22;12542;50.924;4.516;2022-08-21T15:40:39;27.30;79.10
24408;DHT22;12542;50.924;4.516;2022-08-21T15:43:23;27.20;78.90
24408;DHT22;12542;50.924;4.516;2022-08-21T15:45:50;27.20;81.20
24408;DHT22;12542;50.924;4.516;2022-08-21T15:48:15;27.10;79.90
24408;DHT22;12542;50.924;4.516;2022-08-21T15:50:41;27.20;79.40
24408;DHT22;12542;50.924;4.516;2022-08-21T15:53:07;27.00;79.70
24408;DHT22;12542;50.924;4.516;2022-08-21T15:55:33;27.00;80.40
24408;DHT22;12542;50.924;4.516;2022-08-21T15:58:04;26.90;79.80
24408;DHT22;12542;50.924;4.516;2022-08-21T16:00:32;26.80;80.10
24408;DHT22;12542;50.924;4.516;2022-08-21T16:02:59;26.80;80.10
24408;DHT22;12542;50.924;4.516;2022-08-21T16:05:28;26.80;81.20
24408;DHT22;12542;50.924;4.516;2022-08-21T16:07:53;26.80;80.50
24408;DHT22;12542;50.924;4.516;2022-08-21T16:10:23;26.70;82.50
24408;DHT22;12542;50.924;4.516;2022-08-21T16:12:55;26.60;82.00
24408;DHT22;12542;50.924;4.516;2022-08-21T16:15:21;26.40;82.70
24408;DHT22;12542;50.924;4.516;2022-08-21T16:17:51;26.40;83.60
24408;DHT22;12542;50.924;4.516;2022-08-21T16:20:21;26.30;83.70
24408;DHT22;12542;50.924;4.516;2022-08-21T16:22:48;26.40;83.50
24408;DHT22;12542;50.924;4.516;2022-08-21T16:25:14;26.30;82.90
24408;DHT22;12542;50.924;4.516;2022-08-21T16:27:45;26.20;82.70
24408;DHT22;12542;50.924;4.516;2022-08-21T16:30:12;26.20;81.80
24408;DHT22;12542;50.924;4.516;2022-08-21T16:32:40;26.10;84.10
24408;DHT22;12542;50.924;4.516;2022-08-21T16:35:06;26.00;84.60
24408;DHT22;12542;50.924;4.516;2022-08-21T16:37:32;26.10;84.90
24408;DHT22;12542;50.924;4.516;2022-08-21T16:39:57;26.00;84.60
24408;DHT22;12542;50.924;4.516;2022-08-21T16:42:24;25.90;84.80
24408;DHT22;12542;50.924;4.516;2022-08-21T16:44:51;25.80;86.90
24408;DHT22;12542;50.924;4.516;2022-08-21T16:47:19;25.80;85.40
24408;DHT22;12542;50.924;4.516;2022-08-21T16:49:44;25.80;83.80
24408;DHT22;12542;50.924;4.516;2022-08-21T16:52:11;25.70;84.70
24408;DHT22;12542;50.924;4.516;2022-08-21T16:54:37;25.70;85.30
24408;DHT22;12542;50.924;4.516;2022-08-21T16:57:02;25.60;85.40
24408;DHT22;12542;50.924;4.516;2022-08-21T16:59:28;25.60;86.10
24408;DHT22;12542;50.924;4.516;2022-08-21T17:01:54;25.50;86.30
24408;DHT22;12542;50.924;4.516;2022-08-21T17:04:20;25.40;86.90
24408;DHT22;12542;50.924;4.516;2022-08-21T17:06:46;25.40;87.50